Time;durP1;ratioP1;P1;durP2;ratioP2;P2;SDS_P1;SDS_P2;PMS_P1;PMS_P2;Temp;Humidity;BMP_temperature;BMP_pressure;BME280_temperature;BME280_humidity;BME280_pressure;Samples;Min_cycle;Max_cycle;Signal;HPM_P1;HPM_P2
2023/06/08 00:02:04;;;;;;;10.40;5.18;;;;;;;16.87;74.16;99442.88;5054237;28;20387;-75
2023/06/08 00:04:32;;;;;;;9.57;4.90;;;;;;;16.86;73.90;99441.25;5046073;28;20488;-75
2023/06/08 00:06:59;;;;;;;10.85;5.63;;;;;;;16.88;74.18;99443.69;5048648;28;20111;-75
2023/06/08 00:09:25;;;;;;;7.78;5.38;;;;;;;16.95;73.88;99438.97;5040467;28;20017;-75
2023/06/08 00:11:53;;;;;;;6.75;4.82;;;;;;;16.98;74.05;99443.84;5035040;28;20026;-75
2023/06/08 00:14:19;;;;;;;8.15;5.80;;;;;;;17.01;74.26;99444.31;5033904;28;20032;-75
2023/06/08 00:16:47;;;;;;;9.75;4.53;;;;;;;17.13;73.61;99446.94;5033972;28;20025;-75
2023/06/08 00:19:14;;;;;;;6.78;4.47;;;;;;;17.08;73.34;99452.91;5040490;28;20491;-75
2023/06/08 00:21:42;;;;;;;7.75;5.30;;;;;;;17.09;73.29;99448.91;5045964;28;20021;-75
2023/06/08 00:24:08;;;;;;;12.90;4.35;;;;;;;17.19;72.73;99456.72;5034923;28;20064;-75
2023/06/08 00:26:33;;;;;;;7.80;4.95;;;;;;;17.29;72.17;99446.75;5046772;28;20056;-75
2023/06/08 00:28:59;;;;;;;5.93;4.20;;;;;;;17.31;71.59;99452.84;5038736;28;20029;-75
2023/06/08 00:31:24;;;;;;;5.68;4.38;;;;;;;17.34;71.25;99446.44;5033984;28;20025;-75
2023/06/08 00:33:50;;;;;;;7.20;4.40;;;;;;;17.43;70.81;99454.66;5053678;28;20032;-75
2023/06/08 00:36:15;;;;;;;12.00;4.85;;;;;;;17.57;69.22;99451.22;5053607;28;20368;-75
2023/06/08 00:38:41;;;;;;;7.75;5.40;;;;;;;16.93;70.66;99449.84;5035627;28;20033;-75
2023/06/08 00:41:07;;;;;;;9.63;5.15;;;;;;;16.80;71.52;99446.41;5044296;28;20032;-75
2023/06/08 00:43:32;;;;;;;10.40;5.32;;;;;;;16.32;73.95;99445.94;5053508;28;20021;-75
2023/06/08 00:45:58;;;;;;;14.15;5.50;;;;;;;16.63;72.53;99456.19;5053324;28;20103;-75
2023/06/08 00:48:25;;;;;;;9.48;5.25;;;;;;;16.18;74.40;99449.34;5051578;28;20055;-75
2023/06/08 00:50:52;;;;;;;9.32;4.63;;;;;;;16.63;72.71;99453.38;5053021;28;20041;-75
2023/06/08 00:53:18;;;;;;;8.95;5.15;;;;;;;16.57;72.76;99440.78;5053107;28;20400;-75
2023/06/08 00:55:44;;;;;;;9.25;5.28;;;;;;;16.36;74.07;99439.19;5039086;28;20030;-75
2023/06/08 00:58:14;;;;;;;8.02;5.22;;;;;;;16.61;74.16;99447.28;5038298;28;20025;-75
2023/06/08 01:00:46;;;;;;;10.77;5.13;;;;;;;16.73;73.04;99437.00;5053098;28;20381;-75
2023/06/08 01:03:14;;;;;;;7.10;5.55;;;;;;;16.96;71.42;99439.81;5052927;28;20407;-75
2023/06/08 01:05:46;;;;;;;7.13;5.75;;;;;;;16.93;72.39;99447.00;5052964;28;20024;-75
2023/06/08 01:08:37;;;;;;;10.45;6.10;;;;;;;16.94;71.36;99450.63;5046125;28;20071;-75
2023/06/08 01:11:08;;;;;;;17.42;6.30;;;;;;;16.79;71.43;99455.25;5047490;28;20032;-75
2023/06/08 01:13:45;;;;;;;10.95;5.15;;;;;;;16.28;72.90;99457.16;5050343;28;20086;-75
2023/06/08 01:16:15;;;;;;;7.85;5.63;;;;;;;16.12;74.13;99455.28;5051476;28;20028;-75
2023/06/08 01:18:42;;;;;;;9.70;5.75;;;;;;;16.37;72.96;99452.09;5052287;28;20029;-75
2023/06/08 01:21:52;;;;;;;11.13;5.00;;;;;;;16.70;72.32;99438.56;5051475;28;20112;-75
2023/06/08 01:24:20;;;;;;;10.25;5.82;;;;;;;16.66;71.67;99446.16;5047408;28;20117;-75
2023/06/08 01:26:52;;;;;;;8.20;5.55;;;;;;;16.50;71.75;99452.75;5041379;28;20032;-75
2023/06/08 01:29:27;;;;;;;14.98;6.57;;;;;;;16.26;72.77;99451.09;5043321;28;20547;-75
2023/06/08 01:31:53;;;;;;;7.75;5.35;;;;;;;16.35;72.31;99442.38;5032500;28;20025;-75
2023/06/08 01:34:20;;;;;;;24.05;6.05;;;;;;;16.32;72.55;99449.59;5032454;28;20381;-75
2023/06/08 01:37:01;;;;;;;9.00;6.20;;;;;;;16.20;73.01;99447.75;5032692;28;20033;-75
2023/06/08 01:39:50;;;;;;;6.55;5.18;;;;;;;16.24;73.38;99445.00;5038740;28;20104;-75
2023/06/08 01:42:21;;;;;;;9.23;6.53;;;;;;;16.04;73.77;99452.69;5052119;28;20017;-75
2023/06/08 01:45:13;;;;;;;8.70;5.93;;;;;;;15.81;74.38;99457.06;5044047;28;20100;-75
2023/06/08 01:47:45;;;;;;;11.38;6.05;;;;;;;16.09;73.89;99443.91;5030901;28;20408;-75
2023/06/08 01:50:11;;;;;;;12.07;7.43;;;;;;;15.94;73.84;99443.63;5050592;28;20053;-75
2023/06/08 01:52:43;;;;;;;11.65;6.35;;;;;;;15.94;74.58;99449.28;5051935;28;20028;-75
2023/06/08 01:55:19;;;;;;;11.60;7.40;;;;;;;16.14;74.02;99449.28;5049028;28;20112;-75
2023/06/08 01:57:45;;;;;;;8.02;5.95;;;;;;;16.24;73.41;99456.31;5051288;28;20021;-75
2023/06/08 02:00:13;;;;;;;15.27;6.88;;;;;;;16.02;73.45;99453.06;5051886;28;20515;-75
2023/06/08 02:02:38;;;;;;;8.43;6.03;;;;;;;15.69;74.76;99455.19;5051709;28;20112;-75
2023/06/08 02:05:08;;;;;;;7.65;6.38;;;;;;;15.20;77.28;99450.88;5030623;28;20021;-75
2023/06/08 02:07:34;;;;;;;10.07;6.82;;;;;;;15.52;76.31;99455.63;5032629;28;20496;-75
2023/06/08 02:09:59;;;;;;;8.20;6.18;;;;;;;15.34;76.56;99447.59;5047035;28;20126;-75
2023/06/08 02:12:25;;;;;;;8.55;6.30;;;;;;;15.56;75.90;99450.88;5050705;28;20040;-75
2023/06/08 02:14:50;;;;;;;8.80;6.10;;;;;;;15.09;77.96;99450.66;5051617;28;20029;-75
2023/06/08 02:17:18;;;;;;;14.48;6.95;;;;;;;14.95;78.59;99439.84;5051581;28;20029;-75
2023/06/08 02:19:44;;;;;;;14.00;6.72;;;;;;;14.81;79.69;99447.94;5032670;28;20033;-75
2023/06/08 02:22:10;;;;;;;12.20;7.70;;;;;;;14.54;80.86;99447.66;5030994;28;20029;-75
2023/06/08 02:24:35;;;;;;;9.27;6.63;;;;;;;14.76;80.20;99442.59;5034403;28;20029;-75
2023/06/08 02:27:02;;;;;;;24.92;8.07;;;;;;;14.78;79.96;99440.25;5032083;28;20040;-75
2023/06/08 02:29:28;;;;;;;17.48;7.15;;;;;;;15.04;79.09;99439.66;5047654;28;20099;-75
2023/06/08 02:31:53;;;;;;;14.70;6.95;;;;;;;15.25;77.70;99447.78;5051445;28;20043;-75
2023/06/08 02:34:19;;;;;;;25.77;7.55;;;;;;;15.35;77.30;99445.59;5050134;28;20100;-75
2023/06/08 02:36:47;;;;;;;16.98;6.95;;;;;;;15.44;76.53;99443.38;5049975;28;20028;-75
2023/06/08 02:39:14;;;;;;;27.55;7.15;;;;;;;15.47;76.14;99447.44;5036548;28;20030;-75
2023/06/08 02:41:39;;;;;;;15.65;5.47;;;;;;;15.50;76.21;99441.06;5031206;28;20459;-75
2023/06/08 02:44:05;;;;;;;7.55;5.93;;;;;;;15.58;76.09;99440.88;5029960;28;20032;-75
2023/06/08 02:46:32;;;;;;;12.68;6.85;;;;;;;15.69;75.70;99441.09;5029988;28;20026;-75
2023/06/08 02:48:58;;;;;;;15.52;6.55;;;;;;;15.87;75.41;99449.13;5043230;28;20025;-75
2023/06/08 02:51:23;;;;;;;17.45;7.32;;;;;;;15.78;75.14;99446.50;5049588;28;20052;-75
2023/06/08 02:53:49;;;;;;;16.33;7.57;;;;;;;15.77;75.65;99447.69;5049516;28;20411;-75
2023/06/08 02:56:14;;;;;;;17.30;6.80;;;;;;;15.88;75.24;99439.47;5034849;28;20018;-75
2023/06/08 02:58:41;;;;;;;18.92;7.40;;;;;;;15.91;74.74;99443.56;5041124;28;20029;-75
2023/06/08 03:01:14;;;;;;;16.08;7.20;;;;;;;15.95;74.53;99438.81;5049703;28;20013;-75
2023/06/08 03:03:42;;;;;;;9.68;6.55;;;;;;;15.76;75.29;99443.25;5049485;28;20028;-75
2023/06/08 03:06:09;;;;;;;13.98;6.78;;;;;;;15.80;75.48;99448.97;5050905;28;20496;-75
2023/06/08 03:08:36;;;;;;;10.70;7.22;;;;;;;15.82;75.81;99444.59;5043925;28;20365;-75
2023/06/08 03:11:02;;;;;;;16.55;7.70;;;;;;;15.80;76.00;99443.31;5033630;28;20029;-75
2023/06/08 03:13:27;;;;;;;14.93;7.57;;;;;;;15.90;75.57;99454.03;5033300;28;20030;-75
2023/06/08 03:15:53;;;;;;;18.83;8.07;;;;;;;15.80;75.74;99449.75;5035676;28;20037;-75
2023/06/08 03:18:18;;;;;;;15.07;7.60;;;;;;;15.77;75.72;99450.50;5046666;28;20503;-75
2023/06/08 03:20:47;;;;;;;19.98;7.75;;;;;;;15.78;75.79;99457.78;5034920;28;20467;-75
2023/06/08 03:23:13;;;;;;;19.70;7.43;;;;;;;15.81;75.93;99457.06;5035369;28;20075;-75
2023/06/08 03:25:39;;;;;;;13.80;7.40;;;;;;;15.82;76.02;99458.69;5034849;28;20018;-75
2023/06/08 03:28:04;;;;;;;14.63;7.95;;;;;;;15.92;75.57;99454.47;5034596;28;20064;-75
2023/06/08 03:30:30;;;;;;;12.68;7.75;;;;;;;15.90;75.44;99461.66;5033484;28;20052;-75
2023/06/08 03:32:56;;;;;;;25.55;8.20;;;;;;;15.84;75.87;99466.75;5034709;28;20155;-75
2023/06/08 03:35:21;;;;;;;12.90;8.02;;;;;;;15.34;77.39;99469.31;5034699;28;20025;-75
2023/06/08 03:37:47;;;;;;;11.85;7.13;;;;;;;15.16;78.98;99461.25;5036026;28;20411;-75
2023/06/08 03:40:12;;;;;;;17.05;8.35;;;;;;;15.10;79.10;99457.09;5054515;28;20024;-75
2023/06/08 03:42:38;;;;;;;20.25;8.65;;;;;;;14.79;80.57;99453.13;5053103;28;20021;-75
2023/06/08 03:45:04;;;;;;;22.23;9.32;;;;;;;14.83;80.59;99454.84;5054525;28;20021;-75
2023/06/08 03:47:31;;;;;;;15.55;8.15;;;;;;;14.98;80.51;99449.56;5033945;28;20029;-75
2023/06/08 03:49:56;;;;;;;18.48;8.82;;;;;;;14.63;81.69;99447.47;5034511;28;20028;-74
2023/06/08 03:52:22;;;;;;;18.58;8.95;;;;;;;14.83;81.59;99452.03;5052446;28;20025;-75
2023/06/08 03:54:48;;;;;;;15.98;10.15;;;;;;;14.85;81.07;99455.31;5054342;28;20434;-75
2023/06/08 03:57:13;;;;;;;15.85;9.23;;;;;;;14.95;80.16;99465.19;5052926;28;20065;-75
2023/06/08 03:59:39;;;;;;;23.23;10.93;;;;;;;14.84;80.81;99464.09;5034261;28;20128;-75
2023/06/08 04:02:05;;;;;;;26.67;8.43;;;;;;;14.94;80.22;99465.56;5040648;28;20032;-75
2023/06/08 04:04:30;;;;;;;11.43;8.23;;;;;;;14.95;80.37;99464.38;5041476;28;20417;-75
2023/06/08 04:07:01;;;;;;;17.33;9.15;;;;;;;14.83;80.88;99459.66;5048681;28;20083;-75
2023/06/08 04:09:28;;;;;;;14.60;8.63;;;;;;;14.84;81.67;99464.09;5048819;28;20036;-75
2023/06/08 04:11:55;;;;;;;22.13;10.85;;;;;;;14.48;83.06;99465.97;5040572;28;20416;-75
2023/06/08 04:14:21;;;;;;;25.10;12.32;;;;;;;14.54;82.73;99465.38;5034035;28;20033;-75
2023/06/08 04:16:46;;;;;;;30.77;17.65;;;;;;;14.25;84.16;99463.78;5033125;28;20511;-75
2023/06/08 04:19:11;;;;;;;24.60;14.90;;;;;;;14.30;84.82;99464.34;5040910;28;20099;-76
2023/06/08 04:21:38;;;;;;;24.15;15.70;;;;;;;14.26;86.20;99465.44;5032403;28;20112;-76
2023/06/08 04:24:03;;;;;;;21.63;13.48;;;;;;;14.44;85.67;99455.44;5033816;28;20064;-74
2023/06/08 04:26:29;;;;;;;19.17;11.13;;;;;;;14.43;84.56;99465.06;5032942;28;20026;-75
2023/06/08 04:28:55;;;;;;;11.23;8.80;;;;;;;14.45;84.74;99465.53;5045804;28;20021;-75
2023/06/08 04:31:20;;;;;;;22.17;8.95;;;;;;;14.40;84.92;99474.25;5045740;28;20086;-75
2023/06/08 04:33:46;;;;;;;13.02;7.55;;;;;;;14.33;85.39;99474.03;5038235;28;20087;-75
2023/06/08 04:36:12;;;;;;;20.90;7.70;;;;;;;14.60;84.72;99474.38;5037593;28;20095;-75
2023/06/08 04:38:38;;;;;;;10.05;7.32;;;;;;;14.72;84.12;99477.13;5039902;28;20083;-75
2023/06/08 04:41:07;;;;;;;10.07;6.95;;;;;;;14.81;83.29;99484.56;5049325;28;20037;-76
2023/06/08 04:43:32;;;;;;;14.57;7.90;;;;;;;15.10;82.36;99474.00;5036765;28;20177;-75
2023/06/08 04:46:00;;;;;;;8.55;7.28;;;;;;;15.17;80.98;99479.78;5038811;28;20530;-75
2023/06/08 04:48:27;;;;;;;8.70;7.45;;;;;;;15.26;80.14;99471.97;5033284;28;20492;-76
2023/06/08 04:50:54;;;;;;;17.58;7.47;;;;;;;15.43;78.99;99476.38;5033926;28;20048;-74
2023/06/08 04:53:21;;;;;;;12.65;6.85;;;;;;;15.73;78.84;99475.81;5033190;28;20147;-74
2023/06/08 04:55:48;;;;;;;19.67;7.13;;;;;;;15.89;77.51;99474.13;5033236;28;20064;-75
2023/06/08 04:58:15;;;;;;;10.57;6.53;;;;;;;15.83;76.96;99470.78;5048574;28;20072;-73
2023/06/08 05:00:41;;;;;;;10.73;6.55;;;;;;;15.90;77.52;99475.78;5032360;28;20496;-73
2023/06/08 05:03:07;;;;;;;7.68;6.82;;;;;;;15.95;77.39;99484.75;5030487;28;20036;-74
2023/06/08 05:05:33;;;;;;;9.85;6.22;;;;;;;16.23;76.85;99477.25;5029757;28;20068;-74
2023/06/08 05:07:58;;;;;;;13.85;6.82;;;;;;;16.52;76.32;99480.59;5033143;28;20059;-80
2023/06/08 05:10:27;;;;;;;12.07;7.35;;;;;;;16.28;76.78;99474.94;5043186;28;20029;-74
2023/06/08 05:12:55;;;;;;;10.13;7.57;;;;;;;16.55;76.22;99479.88;5051158;28;20033;-78
2023/06/08 05:15:21;;;;;;;14.20;6.60;;;;;;;16.55;76.22;99486.31;5052695;28;20028;-73
2023/06/08 05:17:46;;;;;;;17.17;7.97;;;;;;;16.38;77.13;99498.91;5051328;28;20491;-74
2023/06/08 05:20:12;;;;;;;15.02;7.57;;;;;;;16.61;76.45;99489.63;5051463;28;20372;-74
2023/06/08 05:22:37;;;;;;;11.27;6.97;;;;;;;16.57;75.50;99491.59;5052181;28;20431;-75
2023/06/08 05:25:03;;;;;;;10.90;6.82;;;;;;;16.55;75.46;99488.34;5031881;28;20115;-75
2023/06/08 05:27:29;;;;;;;7.93;6.28;;;;;;;17.08;74.55;99489.66;5038678;28;20060;-77
2023/06/08 05:29:54;;;;;;;12.55;6.55;;;;;;;17.17;73.36;99487.38;5038108;28;20028;-74
2023/06/08 05:32:21;;;;;;;11.23;6.43;;;;;;;16.94;74.20;99482.53;5035662;28;20028;-74
2023/06/08 05:34:47;;;;;;;10.20;6.93;;;;;;;16.70;76.08;99498.69;5038469;28;20060;-74
2023/06/08 05:37:14;;;;;;;8.57;6.50;;;;;;;17.42;73.66;99495.44;5038273;28;20075;-74
2023/06/08 05:39:39;;;;;;;14.07;6.35;;;;;;;17.60;72.46;99494.84;5027019;28;20083;-76
2023/06/08 05:42:06;;;;;;;9.88;6.57;;;;;;;18.10;71.72;99506.88;5027420;28;20024;-73
2023/06/08 05:44:32;;;;;;;13.13;8.20;;;;;;;18.38;69.68;99499.91;5034755;28;20853;-74
2023/06/08 05:46:57;;;;;;;11.10;6.15;;;;;;;18.49;68.88;99500.00;5031105;28;20029;-73
2023/06/08 05:49:24;;;;;;;9.25;7.35;;;;;;;18.07;69.26;99501.97;5034170;28;20040;-73
2023/06/08 05:51:50;;;;;;;12.60;6.80;;;;;;;17.33;72.18;99497.69;5034648;28;20140;-75
2023/06/08 05:54:16;;;;;;;15.82;7.22;;;;;;;17.55;71.90;99498.81;5028070;28;20120;-76
2023/06/08 05:56:42;;;;;;;22.15;7.63;;;;;;;17.87;71.48;99487.13;5034081;28;20036;-74
2023/06/08 05:59:07;;;;;;;8.82;6.13;;;;;;;18.41;69.39;99483.34;5042966;28;20143;-76
2023/06/08 06:01:33;;;;;;;10.80;5.57;;;;;;;18.85;68.15;99481.72;5034840;28;20017;-73
2023/06/08 06:03:58;;;;;;;12.52;6.68;;;;;;;18.83;67.73;99484.97;5043154;28;20057;-73
2023/06/08 06:06:24;;;;;;;8.57;6.38;;;;;;;19.00;66.78;99474.19;5050034;28;20044;-75
2023/06/08 06:08:49;;;;;;;16.08;6.97;;;;;;;19.38;65.89;99480.56;5037542;28;20025;-78
2023/06/08 06:11:15;;;;;;;9.32;6.00;;;;;;;19.54;64.89;99474.56;5050493;28;20021;-79
2023/06/08 06:13:40;;;;;;;10.45;6.57;;;;;;;19.70;65.20;99476.28;5047817;28;20048;-80
2023/06/08 06:16:06;;;;;;;10.45;5.15;;;;;;;19.92;64.96;99469.50;5030392;28;20025;-79
2023/06/08 06:18:31;;;;;;;11.50;6.07;;;;;;;19.94;64.15;99471.13;5030467;28;20519;-75
2023/06/08 06:20:57;;;;;;;9.20;5.72;;;;;;;20.19;62.79;99482.59;5031822;28;20033;-75
2023/06/08 06:23:23;;;;;;;14.25;6.78;;;;;;;20.45;62.39;99472.94;5031432;28;20026;-76
2023/06/08 06:25:50;;;;;;;15.63;7.13;;;;;;;20.59;61.26;99469.28;5038018;28;20048;-76
2023/06/08 06:33:46;;;;;;;11.13;5.85;;;;;;;19.45;65.48;99468.44;5015622;28;20428;-76
2023/06/08 06:36:11;;;;;;;16.08;7.38;;;;;;;19.48;65.46;99461.97;5024795;28;20025;-76
2023/06/08 06:38:36;;;;;;;12.70;8.38;;;;;;;19.59;65.01;99467.72;5042769;28;20339;-76
2023/06/08 06:41:03;;;;;;;13.90;8.27;;;;;;;19.60;65.66;99458.00;5024279;28;20029;-76
2023/06/08 06:43:28;;;;;;;14.70;7.90;;;;;;;19.98;63.59;99455.75;5023443;28;20412;-74
2023/06/08 06:45:54;;;;;;;13.80;8.43;;;;;;;20.42;62.84;99455.88;5022801;28;20044;-75
2023/06/08 06:48:21;;;;;;;11.30;7.78;;;;;;;20.41;62.32;99460.75;5010059;28;20029;-75
2023/06/08 06:50:46;;;;;;;11.52;7.30;;;;;;;20.34;62.42;99453.00;5011399;28;20022;-74
2023/06/08 06:53:13;;;;;;;23.52;7.63;;;;;;;20.77;61.56;99442.94;5010148;28;20046;-74
2023/06/08 06:55:40;;;;;;;15.27;6.18;;;;;;;21.12;61.21;99447.00;5015832;28;20044;-76
2023/06/08 06:58:06;;;;;;;8.25;6.50;;;;;;;21.29;59.21;99439.63;5031177;28;20415;-72
2023/06/08 07:00:37;;;;;;;9.32;6.50;;;;;;;21.53;59.38;99442.03;5022675;28;20029;-75
2023/06/08 07:03:09;;;;;;;9.65;7.35;;;;;;;20.99;60.72;99446.59;5019481;28;20036;-77
2023/06/08 07:05:36;;;;;;;7.78;5.88;;;;;;;20.94;60.76;99443.34;5018629;28;20033;-77
2023/06/08 07:08:02;;;;;;;11.15;6.32;;;;;;;21.52;59.79;99443.25;5010301;28;20026;-77
2023/06/08 07:10:27;;;;;;;14.10;6.80;;;;;;;21.10;60.03;99440.91;5014840;28;20029;-77
2023/06/08 07:12:53;;;;;;;8.55;5.85;;;;;;;21.70;59.34;99434.69;5045273;28;20036;-75
2023/06/08 07:15:18;;;;;;;12.75;7.35;;;;;;;21.95;57.36;99440.25;5012722;28;20030;-75
2023/06/08 07:17:45;;;;;;;10.00;6.75;;;;;;;21.05;59.34;99429.94;5011298;28;20030;-74
2023/06/08 07:20:12;;;;;;;16.20;6.13;;;;;;;21.12;59.92;99424.25;5023904;28;20504;-73
2023/06/08 07:22:37;;;;;;;7.68;6.47;;;;;;;21.53;58.29;99433.50;5022414;28;20071;-74
2023/06/08 07:25:05;;;;;;;8.05;6.10;;;;;;;21.07;60.29;99427.50;5019591;28;20404;-74
2023/06/08 07:27:30;;;;;;;15.05;7.70;;;;;;;21.18;60.07;99428.28;5016554;28;20414;-74
2023/06/08 07:29:56;;;;;;;9.77;6.20;;;;;;;21.42;59.57;99430.69;5027067;28;20037;-76
2023/06/08 07:32:21;;;;;;;11.93;6.38;;;;;;;21.65;59.09;99424.53;5026414;28;20038;-75
2023/06/08 07:34:47;;;;;;;8.02;6.20;;;;;;;22.10;57.44;99423.13;5023572;28;20140;-76
2023/06/08 07:37:13;;;;;;;10.27;7.28;;;;;;;22.19;56.64;99432.00;5017908;28;20022;-75
2023/06/08 07:39:38;;;;;;;8.85;5.75;;;;;;;21.90;56.80;99423.63;5016126;28;20030;-74
2023/06/08 07:42:05;;;;;;;10.45;6.82;;;;;;;21.25;58.50;99421.78;5021292;28;20171;-77
2023/06/08 07:44:31;;;;;;;8.07;6.32;;;;;;;21.83;59.59;99418.78;5026027;28;20029;-75
2023/06/08 07:46:57;;;;;;;13.50;6.85;;;;;;;22.19;56.96;99417.75;5024987;28;20507;-75
2023/06/08 07:49:23;;;;;;;9.20;6.82;;;;;;;22.41;57.33;99414.78;5022659;28;20120;-77
2023/06/08 07:51:50;;;;;;;12.23;6.40;;;;;;;22.80;55.79;99413.69;5022268;28;20022;-76
2023/06/08 07:54:19;;;;;;;8.52;5.53;;;;;;;22.88;53.71;99410.78;5018710;28;20030;-76
2023/06/08 07:56:46;;;;;;;13.67;5.90;;;;;;;23.42;53.99;99408.25;5030351;28;20028;-76
2023/06/08 07:59:11;;;;;;;8.10;6.47;;;;;;;22.71;53.87;99407.69;5026362;28;20030;-76
2023/06/08 08:01:37;;;;;;;10.43;6.72;;;;;;;22.32;54.68;99403.84;5025188;28;20017;-76
2023/06/08 08:04:02;;;;;;;7.80;5.95;;;;;;;22.86;54.99;99406.31;5028330;28;20120;-77
2023/06/08 08:06:28;;;;;;;7.93;5.60;;;;;;;23.31;53.55;99410.41;5024757;28;20036;-76
2023/06/08 08:08:54;;;;;;;7.60;5.78;;;;;;;23.44;54.05;99399.22;5025940;28;20510;-77
2023/06/08 08:11:20;;;;;;;8.30;5.82;;;;;;;23.08;52.83;99403.25;5030760;28;20036;-78
2023/06/08 08:13:46;;;;;;;7.07;5.78;;;;;;;23.04;54.21;99395.97;5028306;28;20251;-78
2023/06/08 08:16:11;;;;;;;9.98;6.75;;;;;;;23.05;53.21;99401.25;5023492;28;20108;-78
2023/06/08 08:18:37;;;;;;;11.55;6.30;;;;;;;22.73;54.18;99393.81;5027079;28;20041;-74
2023/06/08 08:21:02;;;;;;;12.48;5.60;;;;;;;22.70;53.18;99401.16;5032112;28;20083;-74
2023/06/08 08:23:28;;;;;;;15.82;5.55;;;;;;;23.20;54.86;99395.41;5026384;28;20037;-75
2023/06/08 08:25:53;;;;;;;10.07;5.40;;;;;;;23.82;53.29;99390.59;5026211;28;20062;-74
2023/06/08 08:28:19;;;;;;;9.32;6.07;;;;;;;23.88;50.97;99393.78;5023194;28;20079;-74
2023/06/08 08:30:44;;;;;;;8.85;5.40;;;;;;;23.87;51.70;99383.59;5024798;28;20029;-73
2023/06/08 08:33:10;;;;;;;8.40;5.60;;;;;;;24.16;50.85;99386.09;5013161;28;20108;-73
2023/06/08 08:35:36;;;;;;;6.25;5.50;;;;;;;24.45;50.21;99385.66;5013288;28;20030;-77
2023/06/08 08:38:01;;;;;;;8.95;5.60;;;;;;;24.73;50.17;99386.41;5013946;28;20049;-73
2023/06/08 08:40:27;;;;;;;11.32;6.25;;;;;;;24.68;49.05;99389.78;5027670;28;20036;-72
2023/06/08 08:43:22;;;;;;;6.68;5.53;;;;;;;24.93;49.37;99385.69;5013136;28;20022;-71
2023/06/08 08:45:50;;;;;;;8.55;5.10;;;;;;;25.04;48.15;99379.78;5013106;28;20044;-72
2023/06/08 08:48:21;;;;;;;11.05;4.93;;;;;;;25.17;46.34;99383.63;5013051;28;20060;-71
2023/06/08 08:50:58;;;;;;;19.20;5.72;;;;;;;25.22;44.75;99385.19;5013392;28;20025;-73
2023/06/08 08:53:27;;;;;;;18.55;6.30;;;;;;;25.37;47.76;99382.84;5027942;28;20076;-73
2023/06/08 08:55:55;;;;;;;8.23;5.40;;;;;;;25.38;50.04;99384.44;5032067;28;20033;-73
2023/06/08 08:58:21;;;;;;;7.47;5.15;;;;;;;25.51;50.20;99373.19;5032720;28;20037;-74
2023/06/08 09:00:50;;;;;;;7.60;4.53;;;;;;;25.53;48.85;99369.91;5023150;28;20518;-75
2023/06/08 09:03:15;;;;;;;12.63;5.60;;;;;;;25.47;48.18;99369.56;5025776;28;20050;-71
2023/06/08 09:05:45;;;;;;;7.43;5.97;;;;;;;25.49;49.48;99370.75;5012925;28;20052;-74
2023/06/08 09:08:11;;;;;;;8.27;5.13;;;;;;;25.49;48.67;99364.25;5021840;28;20503;-72
2023/06/08 09:10:37;;;;;;;9.48;4.82;;;;;;;25.82;49.82;99364.34;5026007;28;20136;-72
2023/06/08 09:13:02;;;;;;;16.40;5.78;;;;;;;26.16;44.25;99371.75;5027464;28;20104;-73
2023/06/08 09:15:31;;;;;;;11.32;5.78;;;;;;;25.93;44.66;99364.91;5020094;28;20137;-72
2023/06/08 09:17:58;;;;;;;8.18;5.32;;;;;;;26.04;44.96;99361.81;5017495;28;20037;-72
2023/06/08 09:20:28;;;;;;;8.85;5.47;;;;;;;26.08;46.30;99358.88;5017769;28;20021;-72
2023/06/08 09:22:54;;;;;;;16.17;6.43;;;;;;;26.37;46.26;99363.13;5013357;28;20029;-73
2023/06/08 09:25:36;;;;;;;7.35;5.18;;;;;;;26.24;46.46;99355.22;5019823;28;20025;-72
2023/06/08 09:28:22;;;;;;;6.95;4.90;;;;;;;26.13;47.18;99352.59;5016507;28;20040;-72
2023/06/08 09:30:50;;;;;;;7.47;4.70;;;;;;;26.19;45.51;99350.84;5020669;28;20065;-72
2023/06/08 09:33:23;;;;;;;7.68;5.47;;;;;;;25.34;44.67;99341.59;5011967;28;20125;-73
2023/06/08 09:36:04;;;;;;;10.20;5.13;;;;;;;25.89;43.45;99347.00;5020891;28;20411;-74
2023/06/08 09:38:31;;;;;;;12.55;4.60;;;;;;;26.05;42.30;99343.38;5017491;28;20034;-73
2023/06/08 09:41:16;;;;;;;8.93;4.47;;;;;;;26.32;42.36;99353.03;5023695;28;20431;-72
2023/06/08 09:43:46;;;;;;;8.50;4.22;;;;;;;26.23;42.73;99335.63;5010730;28;20069;-73
2023/06/08 09:46:16;;;;;;;7.32;4.68;;;;;;;26.37;42.84;99346.75;5011256;28;20036;-74
2023/06/08 09:48:56;;;;;;;13.32;5.00;;;;;;;26.53;45.14;99345.13;5011614;28;20044;-72
2023/06/08 09:51:23;;;;;;;8.85;4.53;;;;;;;26.40;43.99;99340.09;5015639;28;20080;-71
2023/06/08 09:53:57;;;;;;;8.23;4.90;;;;;;;26.58;42.15;99336.00;5018022;28;20443;-71
2023/06/08 09:56:26;;;;;;;7.05;4.60;;;;;;;26.50;42.67;99338.25;5016749;28;20036;-72
2023/06/08 09:58:54;;;;;;;12.10;4.35;;;;;;;26.92;41.80;99331.84;5020255;28;20579;-73
2023/06/08 10:01:40;;;;;;;5.28;4.72;;;;;;;26.62;41.15;99345.31;5025610;28;20034;-75
2023/06/08 10:04:20;;;;;;;8.40;5.00;;;;;;;26.63;40.20;99327.66;5015290;28;20037;-76
2023/06/08 10:06:47;;;;;;;8.98;4.22;;;;;;;26.81;41.99;99326.38;5013119;28;20515;-73
2023/06/08 10:09:17;;;;;;;9.45;4.60;;;;;;;26.86;40.65;99317.22;5008464;28;20065;-73
2023/06/08 10:11:43;;;;;;;12.00;4.57;;;;;;;27.00;40.97;99316.03;5033384;28;20538;-74
2023/06/08 10:14:12;;;;;;;12.20;6.35;;;;;;;27.19;39.47;99310.63;5022842;28;20125;-74
2023/06/08 10:16:39;;;;;;;12.73;5.82;;;;;;;27.49;40.19;99308.50;5022364;28;20026;-71
2023/06/08 10:19:06;;;;;;;7.13;5.28;;;;;;;27.73;37.87;99305.34;5013941;28;20044;-72
2023/06/08 10:21:32;;;;;;;5.60;4.35;;;;;;;27.51;39.33;99299.44;5014588;28;20052;-72
2023/06/08 10:23:59;;;;;;;7.95;4.85;;;;;;;27.74;39.22;99296.28;5021926;28;20030;-74
2023/06/08 10:26:27;;;;;;;10.50;5.45;;;;;;;27.92;37.79;99297.00;5010499;28;20456;-76
2023/06/08 10:29:10;;;;;;;8.70;5.07;;;;;;;27.80;37.66;99285.03;5021862;28;20041;-76
2023/06/08 10:31:41;;;;;;;13.13;4.65;;;;;;;27.78;37.86;99290.44;5014519;28;20108;-79
2023/06/08 10:34:11;;;;;;;8.93;4.20;;;;;;;27.92;36.42;99283.41;5015464;28;20438;-79
2023/06/08 10:36:39;;;;;;;9.23;5.05;;;;;;;28.34;38.32;99273.84;5024832;28;20401;-79
2023/06/08 10:39:14;;;;;;;5.78;3.47;;;;;;;28.04;35.85;99273.19;5025498;28;20083;-78
2023/06/08 10:41:41;;;;;;;6.13;3.70;;;;;;;28.21;35.32;99275.94;5043131;28;20014;-78
2023/06/08 10:44:41;;;;;;;8.05;4.10;;;;;;;28.05;35.42;99265.34;5026808;28;20040;-78
2023/06/08 10:47:08;;;;;;;5.80;3.55;;;;;;;28.16;35.20;99260.88;5021726;28;20463;-79
2023/06/08 10:49:36;;;;;;;8.70;4.30;;;;;;;28.20;35.50;99254.22;5026932;28;20026;-79
2023/06/08 10:52:04;;;;;;;10.00;4.05;;;;;;;28.30;35.38;99256.75;5022261;28;20022;-79
2023/06/08 10:54:30;;;;;;;5.20;3.60;;;;;;;28.51;34.44;99256.47;5023002;28;20026;-78
2023/06/08 10:56:58;;;;;;;8.55;3.53;;;;;;;28.36;34.31;99254.09;5021147;28;20033;-78
2023/06/08 10:59:53;;;;;;;6.03;3.53;;;;;;;28.47;34.58;99252.91;5026157;28;20021;-79
2023/06/08 11:02:21;;;;;;;6.32;3.42;;;;;;;28.67;33.76;99244.00;5030506;28;20057;-79
2023/06/08 11:04:50;;;;;;;5.22;3.83;;;;;;;28.25;34.30;99236.41;5027942;28;20025;-79
2023/06/08 11:07:15;;;;;;;6.50;3.33;;;;;;;28.22;33.65;99241.00;5022431;28;20108;-78
2023/06/08 11:09:43;;;;;;;6.68;3.63;;;;;;;28.28;33.88;99238.34;5023650;28;20120;-79
2023/06/08 11:12:09;;;;;;;5.68;3.80;;;;;;;28.42;33.75;99226.34;5027240;28;20036;-79
2023/06/08 11:14:34;;;;;;;7.60;3.47;;;;;;;28.52;35.00;99224.34;5024266;28;20037;-79
2023/06/08 11:17:00;;;;;;;6.88;3.47;;;;;;;28.53;33.77;99225.16;5017923;28;20037;-79
2023/06/08 11:19:29;;;;;;;7.93;3.58;;;;;;;28.99;34.31;99214.06;5026174;28;20021;-79
2023/06/08 11:21:55;;;;;;;5.47;3.15;;;;;;;29.02;33.33;99217.25;5021252;28;20504;-78
2023/06/08 11:24:27;;;;;;;9.55;3.95;;;;;;;28.61;33.58;99211.31;5022025;28;20038;-79
2023/06/08 11:26:59;;;;;;;3.97;2.50;;;;;;;28.73;33.47;99208.41;5010680;28;20025;-79
2023/06/08 11:29:26;;;;;;;8.98;4.05;;;;;;;28.61;33.10;99211.31;5023392;28;20412;-79
2023/06/08 11:31:53;;;;;;;7.72;3.50;;;;;;;28.49;33.96;99210.13;5027301;28;20051;-79
2023/06/08 11:34:19;;;;;;;4.45;3.50;;;;;;;28.68;33.52;99197.47;5028075;28;20510;-79
2023/06/08 11:36:44;;;;;;;5.80;2.60;;;;;;;28.66;33.14;99200.03;5028318;28;20029;-79
2023/06/08 11:39:13;;;;;;;7.90;3.00;;;;;;;28.69;33.21;99187.56;5023537;28;20337;-79